Time;durP1;ratioP1;P1;durP2;ratioP2;P2;SDS_P1;SDS_P2;PMS_P1;PMS_P2;Temp;Humidity;BMP_temperature;BMP_pressure;BME280_temperature;BME280_humidity;BME280_pressure;Samples;Min_cycle;Max_cycle;Signal;HPM_P1;HPM_P2
2022/06/06 00:01:39;;;;;;;5.43;3.38;;;;;;;18.38;90.93;94825.63;5058417;28;20051;-69
2022/06/06 00:04:07;;;;;;;7.45;3.65;;;;;;;18.40;91.32;94838.53;5056802;28;20041;-71
2022/06/06 00:06:34;;;;;;;4.75;3.92;;;;;;;18.44;91.41;94837.72;5063461;28;20043;-70
2022/06/06 00:09:01;;;;;;;5.50;3.67;;;;;;;18.20;93.18;94844.81;5059350;28;20059;-70
2022/06/06 00:11:31;;;;;;;4.90;3.17;;;;;;;18.12;94.06;94854.88;5055053;28;20055;-71
2022/06/06 00:13:58;;;;;;;6.35;3.00;;;;;;;18.00;94.74;94846.56;5056617;28;20041;-71
2022/06/06 00:16:25;;;;;;;5.88;3.40;;;;;;;18.08;94.42;94848.59;5056629;28;20606;-71
2022/06/06 00:18:52;;;;;;;5.65;3.45;;;;;;;18.10;94.03;94835.94;5058893;28;20040;-71
2022/06/06 00:21:19;;;;;;;4.72;3.22;;;;;;;18.13;94.38;94845.13;5069777;28;20036;-71
2022/06/06 00:23:46;;;;;;;4.47;3.78;;;;;;;18.15;94.60;94838.53;5060737;28;20502;-71
2022/06/06 00:26:15;;;;;;;7.13;4.03;;;;;;;18.15;95.19;94833.25;5059153;28;20040;-71
2022/06/06 00:28:44;;;;;;;7.60;3.95;;;;;;;18.14;95.32;94841.44;5059090;28;20041;-72
2022/06/06 00:36:45;;;;;;;5.68;3.28;;;;;;;18.05;95.58;94848.38;5056931;28;20044;-68
2022/06/06 00:39:15;;;;;;;4.60;3.45;;;;;;;18.08;95.41;94858.38;5063323;28;20037;-68
2022/06/06 00:41:45;;;;;;;6.05;3.13;;;;;;;17.99;95.03;94855.53;5060563;28;20047;-68
2022/06/06 00:44:32;;;;;;;4.90;3.53;;;;;;;17.96;95.40;94851.59;5058660;28;20508;-68
2022/06/06 00:47:26;;;;;;;5.15;3.50;;;;;;;17.83;96.10;94827.72;5058531;28;20064;-68
2022/06/06 00:50:16;;;;;;;3.88;3.25;;;;;;;17.79;97.15;94830.13;5058542;28;20037;-68
2022/06/06 00:52:45;;;;;;;7.00;3.58;;;;;;;17.70;98.11;94819.38;5060822;28;20045;-68
2022/06/06 00:55:18;;;;;;;4.68;3.33;;;;;;;17.69;99.00;94825.72;5060196;28;20036;-68
2022/06/06 00:57:51;;;;;;;5.45;3.80;;;;;;;17.66;99.48;94820.97;5059206;28;20056;-68
2022/06/06 01:00:21;;;;;;;5.40;3.15;;;;;;;17.62;100.00;94814.69;5058824;28;20048;-68
2022/06/06 01:02:52;;;;;;;4.78;3.97;;;;;;;17.58;100.00;94792.63;5059940;28;20764;-68
2022/06/06 01:05:20;;;;;;;8.60;3.67;;;;;;;17.61;100.00;94781.53;5058070;28;20036;-68
2022/06/06 01:07:48;;;;;;;6.65;3.40;;;;;;;17.68;100.00;94771.47;5061897;28;20056;-68
2022/06/06 01:10:16;;;;;;;5.82;3.58;;;;;;;17.72;100.00;94761.94;5059914;28;20051;-68
2022/06/06 01:12:47;;;;;;;5.97;3.38;;;;;;;17.78;100.00;94766.09;5059244;28;20517;-68
2022/06/06 01:15:16;;;;;;;5.55;3.80;;;;;;;17.83;99.83;94759.22;5058113;28;20050;-68
2022/06/06 01:17:43;;;;;;;4.97;3.38;;;;;;;17.87;99.63;94760.25;5062742;28;20052;-68
2022/06/06 01:20:43;;;;;;;5.57;3.80;;;;;;;18.01;99.57;94753.28;5059475;28;20153;-68
2022/06/06 01:23:25;;;;;;;10.68;4.00;;;;;;;18.14;98.66;94747.31;5060160;28;20734;-68
2022/06/06 01:26:04;;;;;;;7.82;4.38;;;;;;;18.21;97.49;94740.94;5059633;28;20043;-68
2022/06/06 01:28:51;;;;;;;4.95;3.75;;;;;;;18.20;97.69;94734.09;5060177;28;20037;-68
2022/06/06 01:31:30;;;;;;;9.00;3.30;;;;;;;18.17;97.23;94732.00;5057555;28;20465;-68
2022/06/06 01:34:06;;;;;;;6.07;3.95;;;;;;;18.17;97.51;94708.28;5059436;28;20045;-68
2022/06/06 01:36:35;;;;;;;7.70;4.00;;;;;;;18.17;98.29;94681.94;5063140;28;20662;-68
2022/06/06 01:39:07;;;;;;;8.00;4.20;;;;;;;18.24;98.39;94685.00;5077218;28;20724;-68
2022/06/06 01:42:08;;;;;;;9.15;4.72;;;;;;;18.36;97.45;94701.22;5056943;28;20052;-68
2022/06/06 01:44:50;;;;;;;4.70;3.58;;;;;;;18.41;97.29;94677.44;5062176;28;20137;-68
2022/06/06 01:47:24;;;;;;;5.85;4.50;;;;;;;18.57;97.71;94690.41;5055762;28;20048;-68
2022/06/06 01:49:52;;;;;;;7.80;4.13;;;;;;;18.58;97.41;94739.44;5060287;28;20876;-69
2022/06/06 01:52:19;;;;;;;9.50;3.95;;;;;;;18.60;98.54;94811.16;5061491;28;20489;-69
2022/06/06 01:54:46;;;;;;;4.43;3.28;;;;;;;18.30;100.00;94892.16;5064490;28;20123;-70
2022/06/06 01:57:16;;;;;;;8.32;4.10;;;;;;;17.48;100.00;94892.75;5056234;28;20052;-70
2022/06/06 01:59:51;;;;;;;7.82;4.80;;;;;;;17.20;100.00;94887.88;5058833;28;20101;-71
2022/06/06 02:02:30;;;;;;;16.13;8.10;;;;;;;17.17;100.00;94892.91;5057185;28;20210;-72
2022/06/06 02:04:57;;;;;;;28.67;8.52;;;;;;;17.06;100.00;94901.91;5058938;28;20037;-72
2022/06/06 02:07:24;;;;;;;25.58;7.90;;;;;;;16.78;100.00;94870.69;5057217;28;20043;-75
2022/06/06 02:09:51;;;;;;;19.80;9.02;;;;;;;16.59;100.00;94872.31;5075283;28;20054;-74
2022/06/06 02:12:20;;;;;;;19.10;8.05;;;;;;;16.53;100.00;94868.91;5053975;28;20041;-75
2022/06/06 02:14:47;;;;;;;17.35;7.82;;;;;;;16.52;100.00;94883.09;5056300;28;20045;-74
2022/06/06 02:17:16;;;;;;;13.02;8.10;;;;;;;16.52;100.00;94912.03;5058122;28;20047;-75
2022/06/06 02:19:43;;;;;;;17.52;8.80;;;;;;;16.48;100.00;94934.63;5057088;28;20032;-74
2022/06/06 02:22:10;;;;;;;20.98;8.23;;;;;;;16.49;100.00;94930.94;5058098;28;20052;-75
2022/06/06 02:24:37;;;;;;;20.95;8.93;;;;;;;16.46;100.00;94946.47;5056635;28;20037;-75
2022/06/06 02:27:04;;;;;;;25.65;9.80;;;;;;;16.50;100.00;94969.34;5053717;28;20051;-75
2022/06/06 02:29:31;;;;;;;17.85;8.63;;;;;;;16.46;100.00;94941.19;5058448;28;20044;-75
2022/06/06 02:31:58;;;;;;;16.33;9.10;;;;;;;16.45;100.00;94919.38;5060613;28;20037;-75
2022/06/06 02:34:25;;;;;;;14.95;8.15;;;;;;;16.55;100.00;94908.09;5055106;28;20068;-75
2022/06/06 02:36:52;;;;;;;17.95;7.10;;;;;;;16.57;100.00;94901.50;5058900;28;20051;-75
2022/06/06 02:39:19;;;;;;;14.98;7.20;;;;;;;16.58;100.00;94903.09;5059009;28;20047;-75
2022/06/06 02:41:46;;;;;;;10.52;6.97;;;;;;;16.61;100.00;94907.00;5057733;28;20119;-75
2022/06/06 02:44:13;;;;;;;10.73;6.18;;;;;;;16.66;100.00;94895.69;5043110;28;20529;-75
2022/06/06 02:46:40;;;;;;;14.25;6.78;;;;;;;16.74;100.00;94892.50;5058852;28;20498;-75
2022/06/06 02:49:08;;;;;;;14.45;6.75;;;;;;;16.77;100.00;94878.84;5060124;28;20407;-75
2022/06/06 02:51:35;;;;;;;12.68;7.68;;;;;;;16.84;100.00;94892.50;5063617;28;20978;-75
2022/06/06 02:54:03;;;;;;;14.38;6.97;;;;;;;16.85;100.00;94888.81;5066515;28;20044;-75
2022/06/06 02:56:30;;;;;;;12.90;7.60;;;;;;;16.98;100.00;94880.38;5058474;28;20056;-75
2022/06/06 02:59:07;;;;;;;12.25;6.95;;;;;;;17.05;100.00;94895.88;5056527;28;20542;-75
2022/06/06 03:01:34;;;;;;;14.13;7.60;;;;;;;16.99;100.00;94866.13;5061067;28;20044;-74
2022/06/06 03:04:01;;;;;;;16.63;8.18;;;;;;;17.17;100.00;94871.84;5065986;28;20106;-75
2022/06/06 03:06:40;;;;;;;11.98;6.55;;;;;;;17.18;100.00;94899.75;5057052;28;20048;-75
2022/06/06 03:09:44;;;;;;;15.52;6.93;;;;;;;17.26;100.00;94909.69;5061551;28;20051;-74
2022/06/06 03:12:44;;;;;;;13.77;7.40;;;;;;;17.35;100.00;94915.19;5066261;28;20036;-75
2022/06/06 03:15:22;;;;;;;16.42;7.63;;;;;;;17.45;100.00;94909.06;5064454;28;20393;-75
2022/06/06 03:21:05;;;;;;;10.85;7.45;;;;;;;17.54;100.00;94892.44;5019567;28;20141;-75
2022/06/06 03:23:39;;;;;;;10.45;7.25;;;;;;;17.63;100.00;94905.81;5055359;28;20037;-75
2022/06/06 03:26:43;;;;;;;12.80;6.65;;;;;;;17.75;100.00;94887.84;5058114;28;20051;-73
2022/06/06 03:29:35;;;;;;;9.40;7.22;;;;;;;17.81;100.00;94885.13;5051791;28;20052;-74
2022/06/06 03:32:25;;;;;;;11.30;7.45;;;;;;;17.79;100.00;94872.28;5061143;28;20045;-74
2022/06/06 03:35:14;;;;;;;9.73;6.50;;;;;;;17.86;100.00;94874.59;5057741;28;20057;-74
2022/06/06 03:37:47;;;;;;;16.60;6.63;;;;;;;17.87;100.00;94870.91;5059912;28;20060;-74
2022/06/06 03:40:52;;;;;;;10.38;6.95;;;;;;;17.82;100.00;94865.66;5055900;28;20118;-73
2022/06/06 03:43:18;;;;;;;10.75;7.47;;;;;;;17.85;100.00;94870.38;5054253;28;20044;-73
2022/06/06 03:46:15;;;;;;;11.10;6.60;;;;;;;17.86;100.00;94877.22;5058487;28;20065;-74
2022/06/06 03:49:11;;;;;;;11.60;6.85;;;;;;;17.77;100.00;94875.19;5060928;28;20044;-74
2022/06/06 03:52:00;;;;;;;18.60;7.68;;;;;;;17.74;100.00;94886.25;5062869;28;20043;-74
2022/06/06 03:54:36;;;;;;;10.88;7.05;;;;;;;17.73;100.00;94889.94;5055520;28;20049;-73
2022/06/06 03:57:15;;;;;;;7.85;6.43;;;;;;;17.69;100.00;94896.81;5064882;28;20536;-73
2022/06/06 03:59:47;;;;;;;15.32;7.00;;;;;;;17.74;100.00;94891.53;5060980;28;20521;-73
2022/06/06 04:02:19;;;;;;;16.90;7.07;;;;;;;17.80;100.00;94899.38;5065606;28;20561;-75
2022/06/06 04:04:47;;;;;;;10.57;6.50;;;;;;;17.74;100.00;94890.75;5061082;28;20263;-74
2022/06/06 04:07:14;;;;;;;15.60;6.95;;;;;;;17.83;100.00;94904.91;5065234;28;20787;-74
2022/06/06 04:09:42;;;;;;;15.43;6.28;;;;;;;17.86;100.00;94908.84;5064474;28;20044;-74
2022/06/06 04:12:22;;;;;;;21.55;6.57;;;;;;;17.88;100.00;94907.53;5059772;28;20148;-74
2022/06/06 04:15:31;;;;;;;11.13;7.13;;;;;;;17.98;100.00;94905.88;5062538;28;20047;-73
2022/06/06 04:18:13;;;;;;;10.40;6.53;;;;;;;17.99;100.00;94902.97;5081542;28;20044;-74
2022/06/06 04:21:09;;;;;;;13.38;7.45;;;;;;;18.01;100.00;94895.56;5058192;28;20041;-70
2022/06/06 04:24:12;;;;;;;14.80;7.57;;;;;;;18.03;100.00;94888.16;5061730;28;20118;-65
2022/06/06 04:27:32;;;;;;;12.35;7.43;;;;;;;18.07;100.00;94889.19;5059704;28;20713;-78
2022/06/06 04:30:12;;;;;;;9.63;6.57;;;;;;;18.10;100.00;94896.56;5074051;28;20036;-66
2022/06/06 04:33:01;;;;;;;11.77;6.80;;;;;;;18.13;100.00;94893.38;5057508;28;20036;-65
2022/06/06 04:35:33;;;;;;;10.88;7.57;;;;;;;18.12;100.00;94891.78;5062322;28;20040;-66
2022/06/06 04:38:46;;;;;;;14.05;8.27;;;;;;;18.12;100.00;94891.78;5060320;28;20162;-66
2022/06/06 04:41:26;;;;;;;12.50;7.22;;;;;;;18.25;100.00;94894.84;5056855;28;20056;-66
2022/06/06 04:44:06;;;;;;;11.45;7.55;;;;;;;18.34;100.00;94890.53;5057303;28;20043;-66
2022/06/06 04:46:56;;;;;;;12.45;6.57;;;;;;;18.41;100.00;94883.09;5060206;28;20122;-66
2022/06/06 04:49:27;;;;;;;9.73;7.35;;;;;;;18.52;100.00;94879.28;5057483;28;20044;-66
2022/06/06 04:51:56;;;;;;;10.65;6.75;;;;;;;18.62;100.00;94877.59;5058919;28;20036;-66
2022/06/06 04:54:29;;;;;;;8.77;6.28;;;;;;;18.74;100.00;94875.34;5056458;28;20040;-66
2022/06/06 04:56:59;;;;;;;10.25;6.95;;;;;;;18.84;100.00;94875.28;5057268;28;20567;-64
2022/06/06 04:59:28;;;;;;;8.50;6.55;;;;;;;19.02;100.00;94875.63;5054253;28;20083;-65
2022/06/06 05:01:58;;;;;;;11.25;7.57;;;;;;;19.13;100.00;94866.50;5059634;28;20045;-65
2022/06/06 05:04:25;;;;;;;12.07;6.72;;;;;;;19.28;100.00;94882.16;5057388;28;20056;-64
2022/06/06 05:07:13;;;;;;;9.50;5.93;;;;;;;19.45;100.00;94888.78;5060928;28;20049;-66
2022/06/06 05:09:58;;;;;;;12.45;6.25;;;;;;;19.61;100.00;94890.16;5057118;28;20091;-66
2022/06/06 05:12:47;;;;;;;12.65;6.05;;;;;;;19.78;100.00;94902.88;5060530;28;20122;-66
2022/06/06 05:15:38;;;;;;;9.00;5.45;;;;;;;19.86;100.00;94904.88;5057116;28;20048;-65
2022/06/06 05:18:30;;;;;;;11.38;5.47;;;;;;;19.92;100.00;94902.16;5077034;28;20054;-66
2022/06/06 05:21:19;;;;;;;6.20;4.88;;;;;;;20.01;100.00;94906.47;5055850;28;20037;-67
2022/06/06 05:24:24;;;;;;;10.77;6.10;;;;;;;20.18;100.00;94908.59;5052269;28;20040;-67
2022/06/06 05:27:41;;;;;;;12.05;4.60;;;;;;;20.40;100.00;94907.97;5058425;28;20048;-66
2022/06/06 05:30:16;;;;;;;7.80;4.80;;;;;;;20.52;100.00;94920.72;5053564;27;20082;-67
2022/06/06 05:33:04;;;;;;;6.82;4.38;;;;;;;20.67;100.00;94922.38;5057596;28;20118;-67
2022/06/06 05:36:08;;;;;;;7.57;4.90;;;;;;;20.87;100.00;94920.41;5054678;28;20509;-66
2022/06/06 05:39:07;;;;;;;12.43;5.85;;;;;;;20.96;100.00;94924.72;5055537;28;20286;-67
2022/06/06 05:41:49;;;;;;;10.32;4.63;;;;;;;21.05;100.00;94916.88;5053881;28;20029;-67
2022/06/06 05:44:30;;;;;;;6.22;4.63;;;;;;;21.06;100.00;94925.59;5057166;28;20059;-67
2022/06/06 05:47:16;;;;;;;7.13;3.88;;;;;;;21.04;100.00;94925.91;5052802;28;20837;-67
2022/06/06 05:49:59;;;;;;;9.57;5.40;;;;;;;21.14;100.00;94920.41;5058328;28;20043;-67
2022/06/06 05:52:29;;;;;;;6.82;4.25;;;;;;;21.03;100.00;94919.06;5052130;28;20047;-67
2022/06/06 05:55:04;;;;;;;7.00;4.20;;;;;;;20.96;100.00;94918.66;5057589;28;20712;-68
2022/06/06 05:58:00;;;;;;;8.50;4.65;;;;;;;20.88;100.00;94921.97;5053852;28;20422;-67
2022/06/06 06:00:41;;;;;;;9.27;5.05;;;;;;;20.91;100.00;94921.41;5057688;28;20051;-67
2022/06/06 06:03:23;;;;;;;9.90;5.28;;;;;;;20.93;100.00;94913.94;5053378;28;20060;-68
2022/06/06 06:06:06;;;;;;;8.88;5.20;;;;;;;20.85;100.00;94918.06;5059240;28;20101;-68
2022/06/06 06:08:52;;;;;;;10.23;5.67;;;;;;;20.49;100.00;94918.69;5056112;28;20044;-68
2022/06/06 06:11:40;;;;;;;11.32;6.10;;;;;;;20.47;100.00;94912.88;5058125;28;20473;-69
2022/06/06 06:14:53;;;;;;;7.18;5.47;;;;;;;20.44;100.00;94916.88;5053899;28;21561;-68
2022/06/06 06:17:24;;;;;;;9.40;5.35;;;;;;;20.49;100.00;94915.22;4994905;28;20045;-68
2022/06/06 06:20:02;;;;;;;11.05;5.30;;;;;;;20.80;100.00;94918.94;4991894;28;20455;-68
2022/06/06 06:23:00;;;;;;;10.90;6.60;;;;;;;20.73;100.00;94926.47;5029820;28;20086;-69
2022/06/06 06:25:28;;;;;;;10.05;5.60;;;;;;;20.60;100.00;94906.06;5052902;28;20107;-69
2022/06/06 06:28:02;;;;;;;9.80;4.95;;;;;;;20.73;100.00;94900.00;5054073;28;20063;-68
2022/06/06 06:30:39;;;;;;;14.98;4.82;;;;;;;20.74;100.00;94901.59;5055147;28;20044;-68
2022/06/06 06:33:14;;;;;;;8.48;6.53;;;;;;;20.97;100.00;94899.03;5057854;28;20138;-68
2022/06/06 06:36:00;;;;;;;10.02;5.57;;;;;;;21.27;100.00;94910.09;5055287;28;20041;-69
2022/06/06 06:38:55;;;;;;;8.13;5.40;;;;;;;21.38;100.00;94908.81;5056156;28;20044;-68
2022/06/06 06:41:37;;;;;;;7.13;4.95;;;;;;;21.43;100.00;94911.34;5055646;28;20048;-69
2022/06/06 06:44:11;;;;;;;8.95;5.13;;;;;;;21.40;100.00;94917.22;5054291;28;20036;-68
2022/06/06 06:46:47;;;;;;;11.30;5.05;;;;;;;21.46;100.00;94902.81;5057142;28;20051;-69
2022/06/06 06:49:20;;;;;;;7.85;5.13;;;;;;;21.66;100.00;94903.47;5058090;28;20041;-69
2022/06/06 06:52:11;;;;;;;12.13;6.80;;;;;;;21.72;100.00;94903.06;5059293;28;20393;-69
2022/06/06 06:54:54;;;;;;;9.40;5.15;;;;;;;21.82;100.00;94907.34;5056905;28;20716;-69
2022/06/06 06:57:44;;;;;;;12.70;5.32;;;;;;;21.89;100.00;94907.69;5057111;28;20063;-69
2022/06/06 07:00:18;;;;;;;10.30;6.15;;;;;;;21.75;100.00;94899.00;5060363;28;20040;-69
2022/06/06 07:08:59;;;;;;;11.02;5.90;;;;;;;22.11;100.00;94888.38;5061502;28;20043;-70
2022/06/06 07:11:54;;;;;;;13.13;7.50;;;;;;;22.32;100.00;94869.31;5063892;28;20048;-71
2022/06/06 07:14:47;;;;;;;9.13;5.63;;;;;;;22.53;100.00;94878.31;5059638;28;20040;-71
2022/06/06 07:17:15;;;;;;;10.57;4.88;;;;;;;22.62;100.00;94870.41;5075220;28;20493;-71
2022/06/06 07:19:47;;;;;;;9.77;6.05;;;;;;;22.73;100.00;94864.84;5062192;28;20041;-71
2022/06/06 07:22:19;;;;;;;8.98;4.82;;;;;;;22.80;100.00;94875.78;5059349;28;20051;-71
2022/06/06 07:24:55;;;;;;;13.05;5.50;;;;;;;22.86;100.00;94871.91;5061398;28;20509;-70
2022/06/06 07:27:22;;;;;;;11.23;5.85;;;;;;;23.00;100.00;94866.47;5059337;28;20574;-71
2022/06/06 07:29:48;;;;;;;13.23;5.38;;;;;;;23.11;100.00;94872.31;5058913;28;20093;-71
2022/06/06 07:32:43;;;;;;;13.07;6.45;;;;;;;23.03;100.00;94869.28;5056898;28;20040;-70
2022/06/06 07:35:51;;;;;;;14.20;5.45;;;;;;;23.06;100.00;94879.31;5057251;28;20044;-71
2022/06/06 07:38:44;;;;;;;16.77;4.95;;;;;;;23.13;100.00;94872.78;5056977;28;20048;-77
2022/06/06 07:41:39;;;;;;;12.93;6.40;;;;;;;23.31;100.00;94871.72;5059516;28;20511;-66
2022/06/06 07:44:35;;;;;;;11.95;6.32;;;;;;;23.62;100.00;94865.47;5070148;28;20612;-66
2022/06/06 07:47:12;;;;;;;14.30;5.65;;;;;;;23.89;100.00;94866.28;5062134;28;20047;-66
2022/06/06 07:49:59;;;;;;;13.32;4.82;;;;;;;24.01;94.30;94874.41;5057365;28;20043;-66
2022/06/06 07:52:53;;;;;;;13.07;4.53;;;;;;;24.17;94.49;94888.78;5062266;28;20052;-66
2022/06/06 07:55:26;;;;;;;12.53;4.57;;;;;;;24.33;90.26;94889.06;5057493;28;20044;-67
2022/06/06 07:58:17;;;;;;;9.65;6.93;;;;;;;24.44;94.06;94892.19;5059649;28;20076;-69
2022/06/06 08:00:54;;;;;;;9.25;4.63;;;;;;;24.63;90.61;94894.47;5058180;28;20041;-70
2022/06/06 08:03:34;;;;;;;10.75;4.43;;;;;;;24.67;90.85;94889.31;5059882;28;20539;-71
2022/06/06 08:06:24;;;;;;;12.15;3.78;;;;;;;24.48;89.54;94871.81;5060583;28;20052;-71
2022/06/06 08:09:00;;;;;;;13.02;4.30;;;;;;;24.46;90.94;94889.97;5057248;28;20047;-72
2022/06/06 08:11:45;;;;;;;15.38;4.57;;;;;;;24.58;88.23;94900.78;5060255;28;20051;-72
2022/06/06 08:14:14;;;;;;;6.40;3.75;;;;;;;24.45;87.24;94909.69;5059394;28;20054;-72
2022/06/06 08:16:54;;;;;;;11.32;4.68;;;;;;;24.56;87.66;94910.97;5057397;28;20044;-72
2022/06/06 08:19:24;;;;;;;9.50;4.20;;;;;;;24.41;86.82;94914.09;5060307;28;20048;-72
2022/06/06 08:21:51;;;;;;;10.73;3.92;;;;;;;24.65;88.34;94918.13;5057380;28;20046;-72
2022/06/06 08:24:26;;;;;;;10.93;4.47;;;;;;;24.68;89.03;94920.16;5058888;28;20052;-72
2022/06/06 08:27:16;;;;;;;9.90;4.28;;;;;;;24.73;90.70;94925.31;5055930;28;20099;-72
2022/06/06 08:29:45;;;;;;;11.63;4.43;;;;;;;24.82;88.96;94947.38;5058979;28;20449;-72
2022/06/06 08:32:12;;;;;;;10.93;4.57;;;;;;;24.83;91.40;94978.25;5056142;28;20044;-72
2022/06/06 08:34:40;;;;;;;4.82;3.83;;;;;;;24.14;93.49;94981.75;5059423;28;20163;-72
2022/06/06 08:37:07;;;;;;;4.22;2.72;;;;;;;23.43;99.32;94951.63;5054145;28;20032;-70
2022/06/06 08:39:55;;;;;;;6.65;2.55;;;;;;;22.31;99.16;94940.19;5063257;28;20048;-69
2022/06/06 08:43:00;;;;;;;6.72;2.10;;;;;;;21.10;98.81;94945.88;5057730;28;20049;-70
2022/06/06 08:45:50;;;;;;;12.50;2.67;;;;;;;20.30;95.59;94934.59;5056759;28;20137;-68
2022/06/06 08:48:48;;;;;;;6.10;2.97;;;;;;;19.48;100.00;94893.47;5054709;28;21310;-68
2022/06/06 08:51:18;;;;;;;8.80;4.38;;;;;;;19.02;100.00;94907.28;5075561;28;20052;-68
2022/06/06 08:54:12;;;;;;;4.28;2.13;;;;;;;18.82;100.00;94909.09;5057217;28;20681;-67
2022/06/06 08:56:53;;;;;;;9.10;2.88;;;;;;;18.54;100.00;94908.78;5058032;28;20048;-68
2022/06/06 08:59:51;;;;;;;9.90;3.28;;;;;;;18.33;100.00;94912.72;5059353;28;20084;-69
2022/06/06 09:02:30;;;;;;;8.52;2.78;;;;;;;18.15;100.00;94917.59;5059974;28;20040;-67
2022/06/06 09:05:35;;;;;;;8.70;2.70;;;;;;;18.15;100.00;94922.09;5053578;28;20040;-68
2022/06/06 09:08:21;;;;;;;6.10;2.85;;;;;;;18.13;100.00;94940.81;5055076;28;20134;-70
2022/06/06 09:11:06;;;;;;;7.60;3.03;;;;;;;18.18;100.00;94962.91;5056134;28;20049;-69
2022/06/06 09:14:02;;;;;;;8.82;2.83;;;;;;;18.17;100.00;94992.97;5068907;28;20052;-70
2022/06/06 09:16:55;;;;;;;6.68;2.35;;;;;;;18.19;100.00;94996.13;5054180;28;20051;-71
2022/06/06 09:19:28;;;;;;;12.32;3.00;;;;;;;18.17;100.00;94998.22;5057255;28;20173;-70
2022/06/06 09:22:18;;;;;;;8.43;2.67;;;;;;;18.28;100.00;95015.56;5059924;28;20039;-71
2022/06/06 09:25:23;;;;;;;4.38;2.13;;;;;;;18.42;100.00;95008.59;5056321;28;20039;-68
2022/06/06 09:28:04;;;;;;;6.85;2.58;;;;;;;18.67;100.00;95006.81;5059206;28;20521;-75
2022/06/06 09:30:34;;;;;;;9.07;3.25;;;;;;;18.76;100.00;94994.59;5072267;28;20048;-71
2022/06/06 09:33:04;;;;;;;8.95;3.83;;;;;;;18.91;100.00;94968.09;5057296;28;20059;-71
2022/06/06 09:35:49;;;;;;;9.07;2.92;;;;;;;19.07;100.00;94952.09;5055088;28;20048;-73
2022/06/06 09:38:19;;;;;;;10.63;3.15;;;;;;;19.29;100.00;94965.56;5058663;28;20524;-69
2022/06/06 09:41:11;;;;;;;7.78;3.50;;;;;;;19.53;100.00;94964.72;5058888;28;20044;-69
2022/06/06 09:43:44;;;;;;;9.27;3.33;;;;;;;19.78;100.00;94957.56;5061483;28;20040;-69
2022/06/06 09:46:12;;;;;;;;;;;;;;;19.84;100.00;94956.44;5058724;28;20048;-70
2022/06/06 09:48:57;;;;;;;5.65;2.92;;;;;;;19.99;100.00;94958.09;5058384;28;20312;-69
2022/06/06 09:51:42;;;;;;;4.20;2.78;;;;;;;20.21;100.00;94944.25;5075607;28;20060;-70
2022/06/06 10:00:38;;;;;;;11.45;3.47;;;;;;;20.97;100.00;94931.56;5057309;28;20266;-70
2022/06/06 10:03:43;;;;;;;2.63;2.10;;;;;;;21.32;100.00;94925.88;5057111;28;20994;-70
2022/06/06 10:06:29;;;;;;;;;;;;;;;21.52;100.00;94930.78;5060058;28;21197;-69
2022/06/06 10:09:33;;;;;;;5.25;2.53;;;;;;;21.76;100.00;94932.41;5057423;28;19930;-69
2022/06/06 10:12:09;;;;;;;7.28;2.13;;;;;;;21.84;100.00;94931.69;5059948;28;20036;-69
2022/06/06 10:14:51;;;;;;;5.38;2.20;;;;;;;21.98;100.00;94952.84;5055492;28;20044;-69
2022/06/06 10:17:33;;;;;;;3.50;2.22;;;;;;;22.04;100.00;94978.19;5056539;28;20628;-69
2022/06/06 10:20:21;;;;;;;6.43;2.22;;;;;;;22.07;100.00;94987.41;5057231;28;20048;-69
2022/06/06 10:23:15;;;;;;;3.47;2.20;;;;;;;22.14;100.00;94980.59;5058983;28;20051;-69
2022/06/06 10:26:12;;;;;;;5.80;2.83;;;;;;;21.88;100.00;94980.38;5059472;28;20045;-67
2022/06/06 10:28:58;;;;;;;3.45;2.30;;;;;;;21.70;100.00;94983.97;5043940;28;20039;-69
2022/06/06 10:31:48;;;;;;;5.03;3.00;;;;;;;21.39;100.00;94973.94;5091032;28;20044;-68
2022/06/06 10:34:30;;;;;;;4.60;2.53;;;;;;;21.34;100.00;94966.88;5081176;28;20040;-68
2022/06/06 10:37:16;;;;;;;6.55;3.00;;;;;;;21.20;100.00;94966.88;5071801;28;20711;-72
2022/06/06 10:40:10;;;;;;;6.05;2.80;;;;;;;21.28;100.00;94961.97;5058015;28;20192;-68
2022/06/06 10:42:52;;;;;;;3.90;2.63;;;;;;;21.27;100.00;94965.72;5063469;28;20045;-68
2022/06/06 10:45:37;;;;;;;8.15;2.80;;;;;;;21.29;100.00;94955.63;5063318;28;20045;-69
2022/06/06 10:48:15;;;;;;;5.85;3.45;;;;;;;21.38;100.00;94961.78;5060972;28;20047;-69
2022/06/06 10:53:52;;;;;;;4.70;2.58;;;;;;;21.48;100.00;94956.31;5063227;28;20075;-69
2022/06/06 10:56:43;;;;;;;5.28;3.20;;;;;;;21.42;100.00;94946.88;5063479;28;20052;-68
2022/06/06 10:59:44;;;;;;;5.60;2.30;;;;;;;21.48;100.00;94961.63;5065893;28;20059;-69
2022/06/06 11:02:55;;;;;;;7.07;2.70;;;;;;;21.41;100.00;94955.09;5062078;28;20044;-69
2022/06/06 11:05:57;;;;;;;8.23;3.33;;;;;;;21.34;100.00;94960.81;5061799;28;20052;-69
2022/06/06 11:08:30;;;;;;;4.75;2.67;;;;;;;21.33;100.00;94964.53;5062296;28;20608;-71
2022/06/06 11:10:57;;;;;;;7.05;3.25;;;;;;;21.31;100.00;94972.78;5062804;28;20037;-70
2022/06/06 11:13:56;;;;;;;8.73;3.10;;;;;;;21.28;100.00;94967.28;5062952;28;20044;-70
2022/06/06 11:17:00;;;;;;;7.88;3.13;;;;;;;21.33;100.00;94975.13;5057774;28;20821;-70
2022/06/06 11:19:36;;;;;;;;;;;;;;;21.41;100.00;94984.25;5059713;28;20067;-70
2022/06/06 11:22:29;;;;;;;4.55;2.75;;;;;;;21.43;100.00;94969.63;5063587;28;19924;-70
2022/06/06 11:25:14;;;;;;;7.93;3.72;;;;;;;21.43;100.00;94974.94;5058298;28;20596;-70
2022/06/06 11:28:03;;;;;;;8.63;4.22;;;;;;;21.53;100.00;94974.75;5058362;28;20597;-70
2022/06/06 11:31:05;;;;;;;6.03;2.78;;;;;;;21.62;100.00;94972.19;5059012;28;20529;-71
2022/06/06 11:33:41;;;;;;;12.10;3.95;;;;;;;21.75;100.00;94959.97;5061184;28;20094;-71
2022/06/06 11:36:20;;;;;;;6.72;3.92;;;;;;;21.86;100.00;94964.00;5074750;28;20708;-71
2022/06/06 11:38:56;;;;;;;6.05;3.58;;;;;;;22.00;100.00;94971.13;5061738;28;20033;-70
2022/06/06 11:41:44;;;;;;;8.82;3.50;;;;;;;22.17;100.00;94979.22;5062141;28;20059;-70
2022/06/06 11:44:16;;;;;;;6.63;3.20;;;;;;;22.30;100.00;94981.03;5058962;28;20051;-70
2022/06/06 11:47:24;;;;;;;5.60;2.30;;;;;;;22.42;98.83;94979.72;5044060;28;20054;-70
2022/06/06 11:50:18;;;;;;;6.30;2.35;;;;;;;22.80;95.37;94966.06;5039794;28;20059;-70
2022/06/06 11:53:19;;;;;;;5.65;2.47;;;;;;;23.15;95.64;94944.97;5062992;28;20640;-70
2022/06/06 11:56:06;;;;;;;4.40;2.35;;;;;;;23.57;91.61;94935.56;5056676;28;20040;-70
2022/06/06 11:58:57;;;;;;;6.07;2.30;;;;;;;24.09;89.94;94950.75;5065673;28;20036;-75
2022/06/06 12:01:37;;;;;;;4.70;2.60;;;;;;;24.57;87.64;94949.78;5057042;28;20048;-76
2022/06/06 12:04:29;;;;;;;4.47;3.15;;;;;;;24.80;85.02;94953.03;5058141;28;20478;-71
2022/06/06 12:07:27;;;;;;;3.65;2.30;;;;;;;25.08;80.42;94957.16;5060980;28;20056;-70
2022/06/06 12:10:02;;;;;;;7.72;3.90;;;;;;;25.69;78.38;94949.63;5055587;28;20585;-70
2022/06/06 12:12:47;;;;;;;11.82;8.93;;;;;;;26.29;76.84;94954.88;5076828;28;20040;-70
2022/06/06 12:15:36;;;;;;;6.45;4.75;;;;;;;27.01;70.36;94955.41;5057469;28;20055;-70
2022/06/06 12:18:35;;;;;;;4.95;3.28;;;;;;;26.94;66.08;94946.34;5059150;28;20045;-70
2022/06/06 12:21:27;;;;;;;3.67;2.17;;;;;;;26.74;67.98;94964.84;5054528;28;20044;-69
2022/06/06 12:24:28;;;;;;;3.72;2.65;;;;;;;26.96;67.85;94960.19;5058515;28;20731;-69
2022/06/06 12:27:27;;;;;;;3.38;2.30;;;;;;;27.09;66.69;94959.06;5058802;28;20040;-69
2022/06/06 12:30:17;;;;;;;2.40;2.20;;;;;;;27.37;65.42;94963.78;5059739;28;20110;-69
2022/06/06 12:33:04;;;;;;;5.60;2.88;;;;;;;26.81;64.93;94961.59;5057953;28;20044;-70
2022/06/06 12:35:44;;;;;;;4.05;3.20;;;;;;;26.73;66.38;94957.16;5062584;28;20059;-70
2022/06/06 12:38:47;;;;;;;4.45;2.83;;;;;;;26.79;66.27;94967.25;5057605;28;20045;-69
2022/06/06 12:41:45;;;;;;;4.32;3.15;;;;;;;26.45;66.38;94969.16;5004089;28;20113;-69
2022/06/06 12:44:26;;;;;;;4.53;3.00;;;;;;;26.45;68.91;94955.81;5058081;28;20048;-69
2022/06/06 12:47:20;;;;;;;4.70;2.45;;;;;;;26.52;69.27;94974.75;5058826;28;20047;-69
2022/06/06 12:50:26;;;;;;;4.07;3.00;;;;;;;26.08;70.15;94971.66;5059030;28;20040;-70
2022/06/06 12:53:14;;;;;;;5.18;3.40;;;;;;;26.24;70.45;94971.09;5032349;28;20048;-70
2022/06/06 12:58:50;;;;;;;3.83;2.88;;;;;;;26.26;69.94;94961.63;5068351;28;20036;-69